createdAt,value
2018-07-19T00:00:14.210Z,99534.91
2018-07-19T00:02:44.442Z,99537.59
2018-07-19T00:05:14.662Z,99543.06
2018-07-19T00:07:45.068Z,99535.40
2018-07-19T00:10:15.409Z,99531.39
2018-07-19T00:12:45.751Z,99527.02
2018-07-19T00:15:16.354Z,99535.03
2018-07-19T00:17:47.093Z,99540.39
2018-07-19T00:20:17.693Z,99519.72
2018-07-19T00:22:48.428Z,99525.06
2018-07-19T00:25:19.060Z,99523.73
2018-07-19T00:27:52.521Z,99522.39
2018-07-19T00:30:23.261Z,99537.47
2018-07-19T00:32:54.781Z,99526.41
2018-07-19T00:35:27.323Z,99518.38
2018-07-19T00:37:57.953Z,99522.88
2018-07-19T00:40:28.504Z,99524.70
2018-07-19T00:42:59.236Z,99527.50
2018-07-19T00:45:30.966Z,99523.48
2018-07-19T00:48:01.558Z,99526.28
2018-07-19T00:50:32.928Z,99520.94
2018-07-19T00:53:03.511Z,99526.16
2018-07-19T00:55:34.393Z,99515.22
2018-07-19T00:58:04.990Z,99522.27
2018-07-19T01:00:36.263Z,99516.55
2018-07-19T01:03:06.958Z,99515.22
2018-07-19T01:05:37.455Z,99513.52
2018-07-19T01:08:08.017Z,99515.83
2018-07-19T01:10:38.762Z,99516.80
2018-07-19T01:13:09.437Z,99508.41
2018-07-19T01:15:40.157Z,99514.48
2018-07-19T01:18:10.883Z,99507.31
2018-07-19T01:20:41.477Z,99510.84
2018-07-19T01:23:12.021Z,99504.52
2018-07-19T01:25:42.779Z,99503.78
2018-07-19T01:28:14.193Z,99510.11
2018-07-19T01:30:45.702Z,99505.97
2018-07-19T01:33:17.024Z,99507.55
2018-07-19T01:35:47.643Z,99510.92
2018-07-19T01:38:18.478Z,99508.97
2018-07-19T01:40:49.166Z,99507.88
2018-07-19T01:43:20.776Z,99501.42
2018-07-19T01:45:51.409Z,99510.18
2018-07-19T01:48:22.880Z,99504.70
2018-07-19T01:50:53.630Z,99504.34
2018-07-19T01:53:24.250Z,99502.52
2018-07-19T01:55:55.141Z,99502.52
2018-07-19T01:58:25.980Z,99496.55
2018-07-19T02:00:56.836Z,99502.27
2018-07-19T02:03:27.732Z,99499.23
2018-07-19T02:05:59.176Z,99493.88
2018-07-19T02:08:29.644Z,99497.28
2018-07-19T02:11:00.476Z,99497.61
2018-07-19T02:13:31.278Z,99501.98
2018-07-19T02:16:01.869Z,99496.02
2018-07-19T02:18:32.330Z,99496.02
2018-07-19T02:21:02.828Z,99501.48
2018-07-19T02:23:33.313Z,99507.20
2018-07-19T02:26:04.159Z,99506.72
2018-07-19T02:28:36.000Z,99503.55
2018-07-19T02:31:06.694Z,99509.88
2018-07-19T02:33:37.415Z,99506.23
2018-07-19T02:36:08.391Z,99504.41
2018-07-19T02:38:39.388Z,99505.98
2018-07-19T02:41:10.368Z,99499.90
2018-07-19T02:43:41.950Z,99501.60
2018-07-19T02:46:12.609Z,99517.30
2018-07-19T02:48:43.209Z,99504.77
2018-07-19T02:51:15.410Z,99475.81
2018-07-19T02:53:45.980Z,99470.09
2018-07-19T02:56:16.881Z,99521.08
2018-07-19T02:58:47.402Z,99518.88
2018-07-19T03:01:19.624Z,99522.90
2018-07-19T03:03:50.124Z,99526.79
2018-07-19T03:06:20.875Z,99520.59
2018-07-19T03:08:51.877Z,99518.52
2018-07-19T03:11:22.485Z,99518.52
2018-07-19T03:13:53.058Z,99520.59
2018-07-19T03:16:23.741Z,99518.88
2018-07-19T03:18:57.131Z,99526.91
2018-07-19T03:21:27.690Z,99522.54
2018-07-19T03:23:58.044Z,99524.23
2018-07-19T03:26:28.684Z,99521.92
2018-07-19T03:28:59.463Z,99514.26
2018-07-19T03:31:29.936Z,99518.77
2018-07-19T03:34:01.317Z,99522.29
2018-07-19T03:36:31.976Z,99521.31
2018-07-19T03:39:02.687Z,99526.05
2018-07-19T03:41:33.396Z,99520.21
2018-07-19T03:44:04.028Z,99521.06
2018-07-19T03:46:35.626Z,99527.75
2018-07-19T03:49:06.143Z,99532.89
2018-07-19T03:51:36.783Z,99534.72
2018-07-19T03:54:07.692Z,99537.00
2018-07-19T03:56:39.313Z,99523.61
2018-07-19T03:59:09.944Z,99519.23
2018-07-19T04:01:40.576Z,99529.09
2018-07-19T04:04:11.348Z,99530.06
2018-07-19T04:06:42.019Z,99533.59
2018-07-19T04:09:12.897Z,99536.77
2018-07-19T04:11:43.750Z,99532.75
2018-07-19T04:14:14.535Z,99538.09
2018-07-19T04:16:45.014Z,99537.61
2018-07-19T04:19:16.082Z,99537.97
2018-07-19T04:21:47.280Z,99538.46
2018-07-19T04:24:17.840Z,99541.02
2018-07-19T04:26:48.542Z,99536.55
2018-07-19T04:29:19.314Z,99533.11
2018-07-19T04:31:50.852Z,99531.77
2018-07-19T04:34:21.751Z,99528.03
2018-07-19T04:36:53.020Z,99542.95
2018-07-19T04:39:23.914Z,99539.30
2018-07-19T04:41:54.626Z,99543.32
2018-07-19T04:44:25.410Z,99541.86
2018-07-19T04:46:58.602Z,99542.45
2018-07-19T04:49:31.804Z,99548.53
2018-07-19T04:52:03.175Z,99503.02
2018-07-19T04:54:33.709Z,99703.58
2018-07-19T04:57:04.888Z,99628.00
2018-07-19T04:59:35.674Z,99549.38
2018-07-19T05:02:07.343Z,99522.23
2018-07-19T05:04:37.994Z,99532.66
2018-07-19T05:07:09.389Z,99531.33
2018-07-19T05:09:41.055Z,99537.16
2018-07-19T05:12:11.699Z,99534.35
2018-07-19T05:14:42.243Z,99540.20
2018-07-19T05:17:12.730Z,99542.62
2018-07-19T05:19:43.361Z,99549.68
2018-07-19T05:22:14.021Z,99547.36
2018-07-19T05:24:44.712Z,99528.72
2018-07-19T05:27:15.533Z,99542.45
2018-07-19T05:29:45.995Z,99628.52
2018-07-19T05:32:16.708Z,99532.33
2018-07-19T05:34:47.426Z,99507.48
2018-07-19T05:37:17.879Z,99648.47
2018-07-19T05:39:48.451Z,99533.65
2018-07-19T05:42:20.415Z,99555.08
2018-07-19T05:44:51.171Z,99561.16
2018-07-19T05:47:21.987Z,99544.55
2018-07-19T05:49:52.768Z,99554.39
2018-07-19T05:52:23.834Z,99555.47
2018-07-19T05:54:54.494Z,99555.32
2018-07-19T05:57:25.094Z,99556.14
2018-07-19T05:59:56.065Z,99564.03
2018-07-19T06:02:26.737Z,99558.90
2018-07-19T06:04:57.445Z,99565.23
2018-07-19T06:07:28.155Z,99563.53
2018-07-19T06:09:59.548Z,99564.62
2018-07-19T06:12:30.003Z,99565.59
2018-07-19T06:15:00.847Z,99567.27
2018-07-19T06:17:31.444Z,99520.70
2018-07-19T06:20:03.552Z,99621.92
2018-07-19T06:22:34.109Z,99530.17
2018-07-19T06:25:05.123Z,99540.73
2018-07-19T06:27:35.936Z,99553.48
2018-07-19T06:30:07.677Z,99502.39
2018-07-19T06:32:39.289Z,99501.86
2018-07-19T06:35:10.085Z,99511.36
2018-07-19T06:37:40.856Z,99506.34
2018-07-19T06:40:11.500Z,99502.86
2018-07-19T06:42:42.229Z,99504.20
2018-07-19T06:45:12.864Z,99504.92
2018-07-19T06:47:43.413Z,99506.27
2018-07-19T06:50:14.724Z,99501.66
2018-07-19T06:52:45.386Z,99513.86
2018-07-19T06:55:16.024Z,99513.68
2018-07-19T06:57:46.778Z,99514.16
2018-07-19T07:00:18.036Z,99520.19
2018-07-19T07:02:48.658Z,99522.09
2018-07-19T07:05:19.570Z,99518.78
2018-07-19T07:07:50.218Z,99519.07
2018-07-19T07:10:20.729Z,99519.52
2018-07-19T07:12:51.821Z,99514.02
2018-07-19T07:15:23.337Z,99519.07
2018-07-19T07:17:54.189Z,99518.27
2018-07-19T07:20:25.942Z,99519.50
2018-07-19T07:22:56.774Z,99523.34
2018-07-19T07:25:27.836Z,99511.14
2018-07-19T07:27:58.567Z,99508.59
2018-07-19T07:30:29.186Z,99507.96
2018-07-19T07:33:00.478Z,99509.28
2018-07-19T07:35:31.150Z,99507.03
2018-07-19T07:38:01.912Z,99508.86
2018-07-19T07:40:33.371Z,99511.34
2018-07-19T07:43:04.273Z,99519.33
2018-07-19T07:45:34.853Z,99512.33
2018-07-19T07:48:05.827Z,99504.70
2018-07-19T07:51:56.877Z,99509.99
2018-07-19T07:54:28.634Z,99507.09
2018-07-19T07:56:59.626Z,99509.55
2018-07-19T07:59:34.875Z,99508.56
2018-07-19T08:02:05.942Z,99519.19
2018-07-19T08:04:37.267Z,99525.09
2018-07-19T08:07:07.952Z,99520.13
2018-07-19T08:09:38.756Z,99525.75
2018-07-19T08:12:09.412Z,99510.19
2018-07-19T08:14:40.209Z,99513.16
2018-07-19T08:17:10.774Z,99516.23
2018-07-19T08:19:41.222Z,99515.99
2018-07-19T08:22:11.866Z,99502.44
2018-07-19T08:24:42.461Z,99520.59
2018-07-19T08:27:13.339Z,99518.34
2018-07-19T08:29:44.746Z,99541.55
2018-07-19T08:32:15.467Z,99519.58
2018-07-19T08:34:46.472Z,99524.28
2018-07-19T08:37:17.081Z,99521.84
2018-07-19T08:39:48.089Z,99530.27
2018-07-19T08:42:18.982Z,99534.23
2018-07-19T08:44:49.731Z,99546.36
2018-07-19T08:47:20.482Z,99527.10
2018-07-19T08:49:51.325Z,99540.70
2018-07-19T08:52:21.915Z,99533.73
2018-07-19T08:54:52.697Z,99541.88
2018-07-19T08:57:23.439Z,99541.75
2018-07-19T08:59:55.256Z,99551.16
2018-07-19T09:02:26.057Z,99551.98
2018-07-19T09:04:56.618Z,99549.48
2018-07-19T09:07:27.049Z,99556.08
2018-07-19T09:09:57.763Z,99557.88
2018-07-19T09:12:28.353Z,99551.13
2018-07-19T09:14:58.825Z,99548.16
2018-07-19T09:17:29.101Z,99554.88
2018-07-19T09:19:59.594Z,99556.75
2018-07-19T15:53:17.811Z,99549.61
2018-07-19T15:55:48.178Z,99594.30
2018-07-19T15:58:19.607Z,99595.76
2018-07-19T16:00:50.284Z,99598.36
2018-07-19T16:03:20.643Z,99597.84
2018-07-19T16:05:51.044Z,99597.02
2018-07-19T16:08:21.196Z,99597.63
2018-07-19T16:10:51.579Z,99601.28
2018-07-19T16:13:21.814Z,99597.03
2018-07-19T16:15:52.037Z,99597.52
2018-07-19T16:18:22.563Z,99600.81
2018-07-19T16:20:52.783Z,99602.77
2018-07-19T16:23:23.142Z,99610.80
2018-07-19T16:25:53.584Z,99606.16
2018-07-19T16:28:24.115Z,99611.52
2018-07-19T16:30:54.508Z,99617.24
2018-07-19T16:33:24.835Z,99617.12
2018-07-19T16:35:55.316Z,99621.13
2018-07-19T16:38:25.927Z,99613.53
2018-07-19T16:40:56.314Z,99615.23
2018-07-19T16:43:26.446Z,99618.66
2018-07-19T16:45:56.806Z,99620.72
2018-07-19T16:48:27.254Z,99619.14
2018-07-19T16:50:57.648Z,99625.47
2018-07-19T16:53:28.045Z,99622.59
2018-07-19T16:55:58.563Z,99623.56
2018-07-19T16:58:28.759Z,99622.96
2018-07-19T17:00:59.017Z,99623.58
2018-07-19T17:03:29.288Z,99622.23
2018-07-19T17:05:59.656Z,99629.54
2018-07-19T17:08:30.043Z,99627.84
2018-07-19T17:11:00.280Z,99623.09
2018-07-19T17:13:30.606Z,99629.30
2018-07-19T17:16:00.732Z,99626.53
2018-07-19T17:18:30.999Z,99626.30
2018-07-19T17:21:01.404Z,99631.90
2018-07-19T17:23:31.730Z,99640.54
2018-07-19T17:26:01.954Z,99641.27
2018-07-19T17:28:32.604Z,99642.73
2018-07-19T17:31:02.827Z,99640.91
2018-07-19T17:33:33.196Z,99641.39
2018-07-19T17:36:03.185Z,99635.67
2018-07-19T17:38:33.485Z,99642.73
2018-07-19T17:41:04.677Z,99637.38
2018-07-19T17:43:34.910Z,99636.04
2018-07-19T17:46:05.229Z,99635.43
2018-07-19T17:48:35.481Z,99643.70
2018-07-19T17:51:05.775Z,99642.12
2018-07-19T17:53:36.151Z,99644.43
2018-07-19T17:56:06.391Z,99633.44
2018-07-19T17:58:36.873Z,99631.25
2018-07-19T18:01:07.963Z,99640.50
2018-07-19T18:03:38.303Z,99636.48
2018-07-19T18:06:08.432Z,99626.13
2018-07-19T18:08:38.748Z,99633.19
2018-07-19T18:11:09.009Z,99632.34
2018-07-19T18:13:40.091Z,99633.80
2018-07-19T18:16:10.451Z,99631.73
2018-07-19T18:18:40.724Z,99631.53
2018-07-19T18:21:11.184Z,99631.16
2018-07-19T18:23:41.663Z,99637.98
2018-07-19T18:26:11.951Z,99642.36
2018-07-19T18:28:42.115Z,99643.45
2018-07-19T18:31:12.706Z,99641.27
2018-07-19T18:33:42.926Z,99646.62
2018-07-19T18:36:14.132Z,99651.98
2018-07-19T18:38:45.234Z,99652.83
2018-07-19T18:41:15.591Z,99645.77
2018-07-19T18:43:46.130Z,99652.95
2018-07-19T18:46:17.452Z,99654.66
2018-07-19T18:48:47.690Z,99650.27
2018-07-19T18:51:18.414Z,99651.73
2018-07-19T18:53:49.084Z,99648.33
2018-07-19T18:56:19.642Z,99646.62
2018-07-19T18:58:49.757Z,99656.97
2018-07-19T19:01:19.847Z,99654.78
2018-07-19T19:03:50.474Z,99659.04
2018-07-19T19:06:21.304Z,99661.72
2018-07-19T19:08:51.515Z,99664.27
2018-07-19T19:11:21.701Z,99659.64
2018-07-19T19:13:52.339Z,99652.83
2018-07-19T19:16:22.739Z,99661.59
2018-07-19T19:18:52.991Z,99660.85
2018-07-19T19:21:23.356Z,99664.17
2018-07-19T19:23:53.515Z,99668.67
2018-07-19T19:26:23.754Z,99672.20
2018-07-19T19:28:53.963Z,99670.01
2018-07-19T19:31:24.385Z,99664.77
2018-07-19T19:33:54.897Z,99671.34
2018-07-19T19:36:25.217Z,99673.53
2018-07-19T19:38:55.499Z,99677.55
2018-07-19T19:41:25.968Z,99675.36
2018-07-19T19:43:56.158Z,99674.51
2018-07-19T19:46:26.577Z,99676.70
2018-07-19T19:48:56.987Z,99679.01
2018-07-19T19:51:27.281Z,99676.81
2018-07-19T19:53:57.587Z,99673.89
2018-07-19T19:56:28.743Z,99683.38
2018-07-19T19:58:59.037Z,99678.15
2018-07-19T20:01:29.516Z,99678.63
2018-07-19T20:03:59.951Z,99672.91
2018-07-19T20:06:30.538Z,99678.27
2018-07-19T20:09:00.871Z,99689.34
2018-07-19T20:11:31.427Z,99681.07
2018-07-19T20:14:01.969Z,99687.16
2018-07-19T20:16:32.183Z,99682.29
2018-07-19T20:19:02.313Z,99677.42
2018-07-19T20:21:32.595Z,99683.75
2018-07-19T20:24:02.713Z,99679.73
2018-07-19T20:26:32.845Z,99685.69
2018-07-19T20:29:03.204Z,99690.44
2018-07-19T20:31:34.209Z,99685.09
2018-07-19T20:34:04.569Z,99682.65
2018-07-19T20:36:34.861Z,99687.03
2018-07-19T20:39:05.851Z,99686.66
2018-07-19T20:41:35.900Z,99685.69
2018-07-19T20:44:06.183Z,99682.28
2018-07-19T20:46:36.340Z,99686.30
2018-07-19T20:49:06.440Z,99688.23
2018-07-19T20:51:36.652Z,99683.73
2018-07-19T20:54:06.883Z,99678.39
2018-07-19T20:56:37.014Z,99681.55
2018-07-19T20:59:07.309Z,99677.53
2018-07-19T21:01:37.652Z,99688.84
2018-07-19T21:04:07.768Z,99687.27
2018-07-19T21:22:57.880Z,99686.42
2018-07-19T21:25:28.687Z,99689.22
2018-07-19T21:27:58.896Z,99690.19
2018-07-19T21:30:29.120Z,99690.19
2018-07-19T21:32:59.399Z,99688.11
2018-07-19T21:35:29.590Z,99688.48
2018-07-19T21:37:59.761Z,99687.63
2018-07-19T21:40:30.282Z,99690.42
2018-07-19T21:43:00.380Z,99691.39
2018-07-19T21:45:30.524Z,99685.67
2018-07-19T21:48:00.604Z,99689.95
2018-07-19T21:50:30.841Z,99693.60
2018-07-19T21:53:01.253Z,99694.20
2018-07-19T21:55:31.695Z,99697.48
2018-07-19T21:58:01.893Z,99692.36
2018-07-19T22:00:32.309Z,99694.30
2018-07-19T22:03:02.626Z,99691.75
2018-07-19T22:05:32.517Z,99687.85
2018-07-19T22:08:02.872Z,99691.86
2018-07-19T22:10:33.413Z,99690.16
2018-07-19T22:13:03.640Z,99689.30
2018-07-19T22:15:33.621Z,99693.09
2018-07-19T22:18:04.925Z,99692.12
2018-07-19T22:20:36.243Z,99687.38
2018-07-19T22:23:06.436Z,99679.84
2018-07-19T22:25:36.780Z,99687.50
2018-07-19T22:28:07.316Z,99688.34
2018-07-19T22:30:37.537Z,99687.98
2018-07-19T22:33:07.716Z,99694.30
2018-07-19T22:35:38.128Z,99694.30
2018-07-19T22:38:08.250Z,99694.41
2018-07-19T22:40:38.270Z,99697.20
2018-07-19T22:43:08.349Z,99691.86
2018-07-19T22:45:38.548Z,99699.02
2018-07-19T22:48:08.842Z,99698.17
2018-07-19T22:50:38.902Z,99699.02
2018-07-19T22:53:09.156Z,99696.95
2018-07-19T22:55:39.602Z,99700.11
2018-07-19T22:58:09.686Z,99694.39
2018-07-19T23:00:39.899Z,99698.03
2018-07-19T23:03:10.145Z,99698.63
2018-07-19T23:05:40.369Z,99696.44
2018-07-19T23:08:10.692Z,99697.08
2018-07-19T23:10:40.919Z,99693.30
2018-07-19T23:13:11.042Z,99692.92
2018-07-19T23:15:41.190Z,99694.01
2018-07-19T23:18:11.167Z,99698.62
2018-07-19T23:20:41.374Z,99696.14
2018-07-19T23:23:13.782Z,99689.69
2018-07-19T23:25:43.955Z,99697.00
2018-07-19T23:28:14.267Z,99691.88
2018-07-19T23:30:44.655Z,99692.59
2018-07-19T23:33:14.956Z,99692.82
2018-07-19T23:35:50.098Z,99693.16
2018-07-19T23:38:28.291Z,99693.05
2018-07-19T23:40:59.838Z,99696.66
2018-07-19T23:43:32.984Z,99695.55
2018-07-19T23:46:18.143Z,99703.41
2018-07-19T23:48:48.907Z,99700.52
2018-07-19T23:51:20.377Z,99703.03
2018-07-19T23:53:50.435Z,99700.00
2018-07-19T23:56:20.698Z,99696.69
2018-07-19T23:58:50.894Z,99697.28
